createdAt,value
2017-10-12T00:00:56.854Z,15.90
2017-10-12T00:03:25.074Z,15.90
2017-10-12T00:05:52.527Z,15.90
2017-10-12T00:08:20.018Z,15.80
2017-10-12T00:10:47.522Z,15.80
2017-10-12T00:13:14.989Z,15.80
2017-10-12T00:15:42.473Z,15.70
2017-10-12T00:18:09.961Z,15.70
2017-10-12T00:20:37.447Z,15.70
2017-10-12T00:23:04.896Z,15.70
2017-10-12T00:25:32.369Z,15.80
2017-10-12T00:27:59.867Z,15.70
2017-10-12T00:30:27.321Z,15.70
2017-10-12T00:32:54.777Z,15.70
2017-10-12T00:35:22.265Z,15.70
2017-10-12T00:37:49.713Z,15.70
2017-10-12T00:40:17.184Z,15.60
2017-10-12T00:42:44.653Z,15.60
2017-10-12T00:45:12.417Z,15.70
2017-10-12T00:47:40.658Z,15.80
2017-10-12T00:50:08.141Z,15.80
2017-10-12T00:52:35.599Z,15.80
2017-10-12T00:55:03.050Z,15.80
2017-10-12T00:57:30.538Z,15.80
2017-10-12T00:59:58.756Z,15.90
2017-10-12T01:02:26.206Z,15.90
2017-10-12T01:04:53.703Z,15.90
2017-10-12T01:07:21.146Z,15.90
2017-10-12T01:09:48.606Z,15.90
2017-10-12T01:12:16.096Z,16.00
2017-10-12T01:14:43.541Z,16.00
2017-10-12T01:17:10.989Z,16.00
2017-10-12T01:19:38.458Z,16.00
2017-10-12T01:22:05.934Z,16.00
2017-10-12T01:24:34.197Z,16.10
2017-10-12T01:27:01.655Z,16.00
2017-10-12T01:29:29.982Z,16.00
2017-10-12T01:31:57.462Z,16.00
2017-10-12T01:34:24.942Z,15.90
2017-10-12T01:36:52.413Z,15.90
2017-10-12T01:39:20.682Z,15.80
2017-10-12T01:41:49.418Z,15.80
2017-10-12T01:44:17.174Z,15.80
2017-10-12T01:46:44.614Z,15.90
2017-10-12T01:49:13.774Z,15.90
2017-10-12T01:51:41.262Z,15.90
2017-10-12T01:54:09.669Z,16.00
2017-10-12T01:56:37.145Z,16.00
2017-10-12T01:59:04.642Z,16.00
2017-10-12T02:01:32.114Z,16.00
2017-10-12T02:04:00.339Z,15.90
2017-10-12T02:06:27.831Z,15.90
2017-10-12T02:08:55.305Z,15.90
2017-10-12T02:11:23.892Z,15.80
2017-10-12T02:13:52.137Z,15.80
2017-10-12T02:16:19.622Z,15.80
2017-10-12T02:18:47.082Z,15.80
2017-10-12T02:21:15.319Z,15.80
2017-10-12T02:23:42.793Z,15.80
2017-10-12T02:26:10.261Z,15.70
2017-10-12T02:28:37.725Z,15.60
2017-10-12T02:31:05.182Z,15.60
2017-10-12T02:33:32.648Z,15.50
2017-10-12T02:36:00.101Z,15.50
2017-10-12T02:38:27.558Z,15.40
2017-10-12T02:40:55.035Z,15.30
2017-10-12T02:43:22.490Z,15.30
2017-10-12T02:45:49.973Z,15.20
2017-10-12T02:48:17.428Z,15.20
2017-10-12T02:50:44.925Z,15.10
2017-10-12T02:53:12.378Z,15.10
2017-10-12T02:55:40.593Z,15.10
2017-10-12T02:58:08.067Z,15.10
2017-10-12T03:00:35.617Z,15.00
2017-10-12T03:03:03.837Z,14.90
2017-10-12T03:05:31.318Z,15.00
2017-10-12T03:07:58.810Z,14.90
2017-10-12T03:10:27.037Z,14.90
2017-10-12T03:12:54.490Z,14.80
2017-10-12T03:15:21.969Z,14.90
2017-10-12T03:17:49.429Z,14.80
2017-10-12T03:20:16.918Z,14.80
2017-10-12T03:22:46.065Z,14.80
2017-10-12T03:25:13.553Z,14.80
2017-10-12T03:27:41.030Z,14.70
2017-10-12T03:30:08.603Z,14.70
2017-10-12T03:32:36.062Z,14.70
2017-10-12T03:35:03.549Z,14.70
2017-10-12T03:37:31.893Z,14.70
2017-10-12T03:39:59.367Z,14.70
2017-10-12T03:42:26.817Z,14.70
2017-10-12T03:44:54.294Z,14.60
2017-10-12T03:47:21.745Z,14.60
2017-10-12T03:49:49.205Z,14.60
2017-10-12T03:52:16.685Z,14.60
2017-10-12T03:54:44.136Z,14.60
2017-10-12T03:57:11.595Z,14.60
2017-10-12T03:59:39.137Z,14.60
2017-10-12T04:02:06.590Z,14.60
2017-10-12T04:04:34.050Z,14.50
2017-10-12T04:07:01.517Z,14.50
2017-10-12T04:09:28.971Z,14.50
2017-10-12T04:11:56.430Z,14.50
2017-10-12T04:14:23.921Z,14.40
2017-10-12T04:16:51.377Z,14.40
2017-10-12T04:19:18.852Z,14.40
2017-10-12T04:21:46.335Z,14.40
2017-10-12T04:24:13.794Z,14.40
2017-10-12T04:26:41.289Z,14.40
2017-10-12T04:29:08.796Z,14.40
2017-10-12T04:31:37.029Z,14.30
2017-10-12T04:34:04.501Z,14.30
2017-10-12T04:36:31.986Z,14.30
2017-10-12T04:39:00.247Z,14.30
2017-10-12T04:41:27.701Z,14.30
2017-10-12T04:43:55.161Z,14.30
2017-10-12T04:46:22.633Z,14.20
2017-10-12T04:48:50.110Z,14.20
2017-10-12T04:51:18.358Z,14.20
2017-10-12T04:53:46.742Z,14.10
2017-10-12T04:56:14.213Z,14.10
2017-10-12T04:58:41.661Z,14.10
2017-10-12T05:01:09.140Z,14.10
2017-10-12T05:03:36.593Z,14.10
2017-10-12T05:06:04.802Z,14.00
2017-10-12T05:08:33.069Z,14.00
2017-10-12T05:11:00.575Z,14.00
2017-10-12T05:13:28.036Z,14.00
2017-10-12T05:15:55.493Z,14.00
2017-10-12T05:18:22.971Z,14.00
2017-10-12T05:20:50.464Z,14.00
2017-10-12T05:23:17.909Z,13.90
2017-10-12T05:25:45.413Z,13.90
2017-10-12T05:28:12.868Z,13.90
2017-10-12T05:30:40.340Z,13.90
2017-10-12T05:33:08.127Z,13.90
2017-10-12T05:35:35.646Z,13.90
2017-10-12T05:38:03.126Z,13.90
2017-10-12T05:40:30.597Z,13.80
2017-10-12T05:42:59.099Z,13.80
2017-10-12T05:45:26.878Z,13.80
2017-10-12T05:47:54.332Z,13.80
2017-10-12T05:50:21.864Z,13.80
2017-10-12T05:52:50.249Z,13.80
2017-10-12T05:55:18.760Z,13.80
2017-10-12T05:57:46.224Z,13.80
2017-10-12T06:00:15.053Z,13.80
2017-10-12T06:02:42.618Z,13.80
2017-10-12T06:05:10.078Z,13.80
2017-10-12T06:07:37.574Z,13.80
2017-10-12T06:10:05.092Z,13.80
2017-10-12T06:12:32.571Z,13.80
2017-10-12T06:15:00.396Z,13.80
2017-10-12T06:17:27.865Z,13.80
2017-10-12T06:19:55.704Z,13.70
2017-10-12T06:22:23.649Z,13.70
2017-10-12T06:24:51.201Z,13.70
2017-10-12T06:27:19.489Z,13.70
2017-10-12T06:29:47.077Z,13.70
2017-10-12T06:32:14.553Z,13.70
2017-10-12T06:34:42.140Z,13.70
2017-10-12T06:37:09.606Z,13.70
2017-10-12T06:39:37.077Z,13.70
2017-10-12T06:42:05.710Z,13.70
2017-10-12T06:44:33.252Z,13.70
2017-10-12T06:47:01.083Z,13.70
2017-10-12T06:49:29.452Z,13.80
2017-10-12T06:51:56.945Z,13.70
2017-10-12T06:54:24.695Z,13.80
2017-10-12T06:56:52.530Z,13.80
2017-10-12T06:59:20.797Z,13.90
2017-10-12T07:01:49.079Z,13.90
2017-10-12T07:04:16.558Z,13.90
2017-10-12T07:06:44.076Z,14.00
2017-10-12T07:09:11.770Z,14.00
2017-10-12T07:11:39.408Z,14.00
2017-10-12T07:14:06.904Z,14.00
2017-10-12T07:16:34.357Z,14.10
2017-10-12T07:19:02.081Z,14.10
2017-10-12T07:21:29.558Z,14.10
2017-10-12T07:23:58.071Z,14.10
2017-10-12T07:26:26.413Z,14.20
2017-10-12T07:28:54.132Z,14.20
2017-10-12T07:31:22.101Z,14.20
2017-10-12T07:33:49.733Z,14.20
2017-10-12T07:36:17.609Z,14.20
2017-10-12T07:38:45.595Z,14.20
2017-10-12T07:41:13.076Z,14.20
2017-10-12T07:43:40.573Z,14.20
2017-10-12T07:46:08.143Z,14.30
2017-10-12T07:48:35.862Z,14.30
2017-10-12T07:51:03.496Z,14.40
2017-10-12T07:53:31.332Z,14.40
2017-10-12T07:55:58.858Z,14.50
2017-10-12T07:58:26.616Z,14.50
2017-10-12T08:00:54.065Z,14.60
2017-10-12T08:03:21.684Z,14.60
2017-10-12T08:05:51.115Z,14.60
2017-10-12T08:08:18.730Z,14.60
2017-10-12T08:10:46.710Z,14.60
2017-10-12T08:13:15.115Z,14.50
2017-10-12T08:15:43.185Z,14.50
2017-10-12T08:18:10.763Z,14.40
2017-10-12T08:20:38.502Z,14.40
2017-10-12T08:23:06.130Z,14.30
2017-10-12T08:25:33.615Z,14.30
2017-10-12T08:28:01.244Z,14.40
2017-10-12T08:30:28.802Z,14.40
2017-10-12T08:32:56.382Z,14.40
2017-10-12T08:35:23.896Z,14.50
2017-10-12T08:37:51.341Z,14.60
2017-10-12T08:40:18.878Z,14.70
2017-10-12T08:42:46.389Z,14.80
2017-10-12T08:45:14.047Z,14.80
2017-10-12T08:47:41.509Z,14.80
2017-10-12T08:50:08.977Z,14.90
2017-10-12T08:52:36.449Z,14.90
2017-10-12T08:55:03.961Z,15.00
2017-10-12T08:57:32.197Z,15.10
2017-10-12T08:59:59.760Z,15.10
2017-10-12T09:02:27.249Z,15.20
2017-10-12T09:04:55.463Z,15.30
2017-10-12T09:07:22.905Z,15.30
2017-10-12T09:09:51.069Z,15.30
2017-10-12T09:12:18.513Z,15.40
2017-10-12T09:14:46.738Z,15.70
2017-10-12T09:17:14.241Z,15.60
2017-10-12T09:19:42.489Z,16.00
2017-10-12T09:22:09.980Z,16.00
2017-10-12T09:24:37.456Z,16.00
2017-10-12T09:27:04.969Z,16.10
2017-10-12T09:29:33.185Z,16.10
2017-10-12T09:32:00.657Z,16.10
2017-10-12T09:34:28.109Z,16.20
2017-10-12T09:36:55.717Z,16.40
2017-10-12T09:39:23.209Z,16.50
2017-10-12T09:41:51.600Z,16.60
2017-10-12T09:44:20.204Z,16.50
2017-10-12T09:46:47.673Z,16.50
2017-10-12T09:49:15.141Z,16.50
2017-10-12T09:51:42.590Z,16.50
2017-10-12T09:54:10.178Z,16.40
2017-10-12T09:56:38.016Z,16.40
2017-10-12T09:59:05.589Z,16.40
2017-10-12T10:01:33.231Z,16.50
2017-10-12T10:04:00.808Z,16.50
2017-10-12T10:06:28.256Z,16.50
2017-10-12T10:08:55.734Z,16.40
2017-10-12T10:11:23.176Z,16.30
2017-10-12T10:13:50.660Z,16.30
2017-10-12T10:16:18.159Z,16.30
2017-10-12T10:18:46.469Z,16.30
2017-10-12T10:21:13.950Z,16.30
2017-10-12T10:23:41.402Z,16.30
2017-10-12T10:26:09.123Z,16.40
2017-10-12T10:28:36.656Z,16.50
2017-10-12T10:31:04.342Z,16.60
2017-10-12T10:33:32.160Z,16.80
2017-10-12T10:35:59.823Z,17.00
2017-10-12T10:38:27.600Z,17.20
2017-10-12T10:40:55.364Z,17.40
2017-10-12T10:43:22.962Z,17.40
2017-10-12T10:45:50.617Z,17.30
2017-10-12T10:48:18.256Z,17.20
2017-10-12T10:50:45.803Z,17.20
2017-10-12T10:53:13.276Z,17.20
2017-10-12T10:55:41.245Z,17.30
2017-10-12T10:58:09.787Z,17.50
2017-10-12T11:00:38.008Z,17.50
2017-10-12T11:03:05.592Z,17.60
2017-10-12T11:05:34.097Z,17.70
2017-10-12T11:08:01.798Z,17.70
2017-10-12T11:10:29.450Z,17.60
2017-10-12T11:12:57.041Z,17.60
2017-10-12T11:15:24.572Z,17.50
2017-10-12T11:17:52.058Z,17.60
2017-10-12T11:20:19.508Z,17.60
2017-10-12T11:22:46.958Z,17.60
2017-10-12T11:25:14.441Z,17.80
2017-10-12T11:27:42.725Z,18.00
2017-10-12T11:30:11.018Z,18.00
2017-10-12T11:32:38.460Z,17.90
2017-10-12T11:35:06.700Z,17.80
2017-10-12T11:37:34.153Z,17.80
2017-10-12T11:40:01.619Z,17.80
2017-10-12T11:42:29.090Z,17.70
2017-10-12T11:44:56.570Z,17.70
2017-10-12T11:47:24.826Z,17.80
2017-10-12T11:49:52.652Z,17.80
2017-10-12T11:52:20.436Z,17.80
2017-10-12T11:54:48.019Z,17.70
2017-10-12T11:57:15.793Z,17.70
2017-10-12T11:59:43.648Z,17.70
2017-10-12T12:02:12.839Z,17.60
2017-10-12T12:04:41.729Z,17.60
2017-10-12T12:07:09.531Z,17.60
2017-10-12T12:09:37.049Z,17.70
2017-10-12T12:12:04.860Z,17.80
2017-10-12T12:14:32.385Z,17.90
2017-10-12T12:16:59.849Z,18.10
2017-10-12T12:19:27.349Z,18.20
2017-10-12T12:21:55.249Z,18.20
2017-10-12T12:24:22.879Z,18.30
2017-10-12T12:26:50.437Z,18.30
2017-10-12T12:29:18.069Z,18.30
2017-10-12T12:31:45.513Z,18.30
2017-10-12T12:34:13.307Z,18.50
2017-10-12T12:36:41.029Z,18.50
2017-10-12T12:39:08.717Z,18.60
2017-10-12T12:41:36.317Z,18.60
2017-10-12T12:44:03.775Z,18.60
2017-10-12T12:46:31.676Z,18.50
2017-10-12T12:48:59.167Z,18.60
2017-10-12T12:51:26.669Z,18.70
2017-10-12T12:53:54.601Z,18.80
2017-10-12T12:56:22.428Z,19.00
2017-10-12T12:58:50.817Z,19.30
2017-10-12T13:01:18.361Z,19.30
2017-10-12T13:03:45.881Z,19.50
2017-10-12T13:06:14.273Z,19.70
2017-10-12T13:08:41.825Z,19.70
2017-10-12T13:11:09.573Z,20.00
2017-10-12T13:13:37.255Z,20.10
2017-10-12T13:16:05.501Z,19.90
2017-10-12T13:18:33.253Z,19.90
2017-10-12T13:21:01.659Z,19.80
2017-10-12T13:23:30.047Z,19.50
2017-10-12T13:25:57.683Z,19.50
2017-10-12T13:28:25.586Z,19.60
2017-10-12T13:30:53.106Z,19.60
2017-10-12T13:33:20.641Z,19.80
2017-10-12T13:35:48.392Z,20.20
2017-10-12T13:38:15.876Z,20.40
2017-10-12T13:40:43.664Z,20.30
2017-10-12T13:43:11.207Z,20.10
2017-10-12T13:45:38.768Z,20.40
2017-10-12T13:48:06.432Z,21.50
2017-10-12T13:50:34.830Z,22.50
2017-10-12T13:53:02.365Z,22.50
2017-10-12T13:55:30.038Z,22.20
2017-10-12T13:57:58.446Z,21.20
2017-10-12T14:00:25.948Z,21.10
2017-10-12T14:02:53.820Z,20.70
2017-10-12T14:05:22.301Z,20.20
2017-10-12T14:07:49.930Z,20.20
2017-10-12T14:10:17.563Z,20.00
2017-10-12T14:12:45.173Z,19.90
2017-10-12T14:15:12.708Z,19.90
2017-10-12T14:17:40.954Z,19.80
2017-10-12T14:20:08.422Z,19.80
2017-10-12T14:22:35.872Z,19.70
2017-10-12T14:25:03.338Z,19.60
2017-10-12T14:27:30.789Z,19.40
2017-10-12T14:29:58.262Z,19.30
2017-10-12T14:32:26.150Z,19.10
2017-10-12T14:34:53.596Z,18.90
2017-10-12T14:37:21.079Z,18.70
2017-10-12T14:39:48.529Z,18.60
2017-10-12T14:42:15.996Z,18.50
2017-10-12T14:44:43.445Z,18.50
2017-10-12T14:47:10.917Z,18.80
2017-10-12T14:49:38.457Z,19.00
2017-10-12T14:52:05.937Z,18.90
2017-10-12T14:54:33.377Z,19.00
2017-10-12T14:57:00.830Z,19.20
2017-10-12T14:59:28.308Z,19.20
2017-10-12T15:01:56.700Z,19.30
2017-10-12T15:04:24.174Z,19.30
2017-10-12T15:06:51.617Z,19.20
2017-10-12T15:09:19.098Z,19.20
2017-10-12T15:11:46.773Z,19.90
2017-10-12T15:14:14.273Z,20.40
2017-10-12T15:16:42.020Z,21.00
2017-10-12T15:19:10.282Z,22.10
2017-10-12T15:21:37.803Z,22.10
2017-10-12T15:24:05.706Z,22.10
2017-10-12T15:26:33.381Z,21.70
2017-10-12T15:29:02.073Z,21.50
2017-10-12T15:31:29.589Z,21.30
2017-10-12T15:33:57.245Z,21.10
2017-10-12T15:36:25.542Z,21.40
2017-10-12T15:38:53.089Z,21.40
2017-10-12T15:41:21.886Z,21.40
2017-10-12T15:43:49.366Z,21.30
2017-10-12T15:46:17.300Z,21.00
2017-10-12T15:48:45.210Z,20.60
2017-10-12T15:51:12.684Z,20.30
2017-10-12T15:53:40.300Z,20.00
2017-10-12T15:56:08.013Z,19.80
2017-10-12T15:58:35.496Z,19.40
2017-10-12T16:01:03.073Z,19.10
2017-10-12T16:03:30.757Z,18.80
2017-10-12T16:05:58.242Z,18.60
2017-10-12T16:08:26.719Z,18.20
2017-10-12T16:10:54.363Z,18.20
2017-10-12T16:13:22.312Z,18.00
2017-10-12T16:15:49.960Z,17.90
2017-10-12T16:18:17.737Z,17.70
2017-10-12T16:20:45.534Z,17.60
2017-10-12T16:23:13.245Z,17.50
2017-10-12T16:25:40.717Z,17.30
2017-10-12T16:28:08.197Z,17.20
2017-10-12T16:30:35.758Z,17.10
2017-10-12T16:35:31.093Z,16.90
2017-10-12T16:37:58.612Z,16.90
2017-10-12T16:40:26.490Z,16.80
2017-10-12T16:42:54.780Z,16.60
2017-10-12T16:45:22.366Z,16.60
2017-10-12T16:47:49.925Z,16.60
2017-10-12T16:50:17.377Z,16.50
2017-10-12T16:52:44.856Z,16.40
2017-10-12T16:55:13.129Z,16.30
2017-10-12T16:57:41.349Z,16.30
2017-10-12T17:00:08.949Z,16.20
2017-10-12T17:02:36.559Z,16.20
2017-10-12T17:05:04.214Z,16.20
2017-10-12T17:07:32.444Z,16.10
2017-10-12T17:10:00.023Z,16.10
2017-10-12T17:12:27.493Z,16.00
2017-10-12T17:14:55.017Z,16.00
2017-10-12T17:17:22.661Z,16.00
2017-10-12T17:19:51.068Z,15.90
2017-10-12T17:22:18.788Z,15.90
2017-10-12T17:24:47.164Z,15.80
2017-10-12T17:27:14.670Z,15.80
2017-10-12T17:29:42.355Z,15.80
2017-10-12T17:32:09.901Z,15.70
2017-10-12T17:34:37.769Z,15.70
2017-10-12T17:37:05.331Z,15.70
2017-10-12T17:42:07.242Z,15.50
2017-10-12T17:44:35.232Z,15.50
2017-10-12T17:47:02.968Z,15.40
2017-10-12T17:49:30.659Z,15.40
2017-10-12T17:51:58.309Z,15.30
2017-10-12T17:54:40.903Z,15.30
2017-10-12T17:56:53.899Z,15.30
2017-10-12T17:59:23.278Z,15.30
2017-10-12T18:01:51.131Z,15.20
2017-10-12T18:04:49.167Z,15.20
2017-10-12T18:06:47.693Z,15.20
2017-10-12T18:11:44.040Z,15.10
2017-10-12T18:14:11.635Z,15.10
2017-10-12T18:16:40.237Z,15.10
2017-10-12T18:19:07.746Z,15.10
2017-10-12T18:21:35.225Z,15.10
2017-10-12T18:24:02.675Z,15.10
2017-10-12T18:26:30.812Z,15.10
2017-10-12T18:28:58.663Z,15.00
2017-10-12T18:31:26.176Z,15.00
2017-10-12T18:33:54.536Z,14.90
2017-10-12T18:36:22.128Z,14.90
2017-10-12T18:38:49.949Z,14.90
2017-10-12T18:41:17.796Z,14.90
2017-10-12T18:43:46.109Z,14.90
2017-10-12T18:46:13.896Z,14.80
2017-10-12T18:48:41.695Z,14.90
2017-10-12T18:51:10.037Z,14.80
2017-10-12T18:53:37.798Z,14.80
2017-10-12T18:56:05.435Z,14.80
2017-10-12T18:58:33.025Z,14.90
2017-10-12T19:01:01.179Z,14.90
2017-10-12T19:03:29.460Z,14.90
2017-10-12T19:05:57.000Z,14.90
2017-10-12T19:08:24.661Z,15.00
2017-10-12T19:10:52.533Z,15.00
2017-10-12T19:13:20.300Z,15.00
2017-10-12T19:18:12.230Z,15.00
2017-10-12T19:20:39.712Z,15.00
2017-10-12T19:23:07.173Z,15.00
2017-10-12T19:25:34.678Z,15.00
2017-10-12T19:30:29.685Z,15.00
2017-10-12T19:32:57.273Z,15.00
2017-10-12T19:35:24.786Z,15.00
2017-10-12T19:37:52.388Z,15.10
2017-10-12T19:40:19.889Z,15.10
2017-10-12T19:42:47.369Z,15.00
2017-10-12T19:45:15.016Z,15.10
2017-10-12T19:47:43.804Z,14.90
2017-10-12T19:50:11.520Z,14.90
2017-10-12T19:52:39.884Z,14.90
2017-10-12T19:55:08.708Z,14.90
2017-10-12T19:57:36.201Z,14.90
2017-10-12T20:00:03.713Z,14.80
2017-10-12T20:02:33.304Z,14.80
2017-10-12T20:05:02.470Z,14.80
2017-10-12T20:07:29.931Z,14.80
2017-10-12T20:09:57.401Z,14.80
2017-10-12T20:12:24.858Z,14.70
2017-10-12T20:14:52.334Z,14.70
2017-10-12T20:17:19.786Z,14.70
2017-10-12T20:19:47.293Z,14.70
2017-10-12T20:22:14.762Z,14.60
2017-10-12T20:24:42.215Z,14.60
2017-10-12T20:27:25.424Z,14.60
2017-10-12T20:29:52.878Z,14.60
2017-10-12T20:32:20.366Z,14.60
2017-10-12T20:34:47.842Z,14.60
2017-10-12T20:37:15.316Z,14.60
2017-10-12T20:39:42.774Z,14.50
2017-10-12T20:42:13.846Z,14.50
2017-10-12T20:44:38.315Z,14.50
2017-10-12T20:47:05.770Z,14.50
2017-10-12T20:49:33.242Z,14.50
2017-10-12T20:52:01.487Z,14.40
2017-10-12T20:54:28.942Z,14.40
2017-10-12T20:56:56.436Z,14.30
2017-10-12T20:59:24.657Z,14.20
2017-10-12T21:01:52.133Z,14.20
2017-10-12T21:04:19.657Z,14.20
2017-10-12T21:06:47.109Z,14.20
2017-10-12T21:09:14.567Z,14.20
2017-10-12T21:11:42.053Z,14.10
2017-10-12T21:14:09.500Z,14.10
2017-10-12T21:16:36.956Z,14.10
2017-10-12T21:19:04.435Z,14.00
2017-10-12T21:21:31.897Z,14.00
2017-10-12T21:23:59.349Z,14.00
2017-10-12T21:26:26.829Z,14.00
2017-10-12T21:28:54.285Z,14.00
2017-10-12T21:31:21.799Z,14.00
2017-10-12T21:33:49.266Z,14.00
2017-10-12T21:36:16.726Z,14.00
2017-10-12T21:38:44.193Z,14.00
2017-10-12T21:41:11.648Z,14.10
2017-10-12T21:43:39.124Z,14.10
2017-10-12T21:46:06.578Z,14.10
2017-10-12T21:48:34.089Z,14.10
2017-10-12T21:51:01.546Z,14.10
2017-10-12T21:53:29.038Z,14.10
2017-10-12T21:55:56.487Z,14.10
2017-10-12T21:58:23.974Z,14.10
2017-10-12T22:00:51.422Z,14.10
2017-10-12T22:03:18.874Z,14.00
2017-10-12T22:05:46.356Z,14.00
2017-10-12T22:08:13.844Z,14.00
2017-10-12T22:10:41.389Z,14.00
2017-10-12T22:13:08.847Z,13.90
2017-10-12T22:15:36.330Z,13.90
2017-10-12T22:18:05.146Z,13.90
2017-10-12T22:20:32.673Z,13.90
2017-10-12T22:23:00.918Z,13.90
2017-10-12T22:25:28.373Z,13.90
2017-10-12T22:27:55.846Z,13.90
2017-10-12T22:30:23.302Z,13.90
2017-10-12T22:32:50.779Z,13.80
2017-10-12T22:35:18.997Z,13.80
2017-10-12T22:37:46.469Z,13.80
2017-10-12T22:40:13.956Z,13.80
2017-10-12T22:42:41.416Z,13.80
2017-10-12T22:45:08.893Z,13.70
2017-10-12T22:47:37.125Z,13.70
2017-10-12T22:50:04.939Z,13.70
2017-10-12T22:52:32.434Z,13.70
2017-10-12T22:54:59.881Z,13.60
2017-10-12T22:57:27.342Z,13.60
2017-10-12T22:59:54.817Z,13.60
2017-10-12T23:02:22.289Z,13.60
2017-10-12T23:04:49.765Z,13.50
2017-10-12T23:07:17.225Z,13.50
2017-10-12T23:09:44.721Z,13.50
2017-10-12T23:12:12.169Z,13.40
2017-10-12T23:14:39.626Z,13.40
2017-10-12T23:17:07.097Z,13.40
2017-10-12T23:19:36.344Z,13.30
2017-10-12T23:22:03.798Z,13.30
2017-10-12T23:24:31.273Z,13.30
2017-10-12T23:26:59.493Z,13.20
2017-10-12T23:29:26.968Z,13.20
2017-10-12T23:31:54.425Z,13.20
2017-10-12T23:34:21.905Z,13.20
2017-10-12T23:36:49.366Z,13.10
2017-10-12T23:39:16.829Z,13.10
2017-10-12T23:41:44.298Z,13.10
2017-10-12T23:44:11.757Z,13.00
2017-10-12T23:46:40.011Z,13.00
2017-10-12T23:49:07.475Z,13.00
2017-10-12T23:51:34.930Z,13.00
2017-10-12T23:54:02.415Z,13.00
2017-10-12T23:56:30.629Z,12.90
2017-10-12T23:58:58.111Z,12.90
